<?xml version="1.0" encoding="UTF-8" standalone="no" ?>
<gpx xmlns="http://www.topografix.com/GPX/1/1" xmlns:xsi="http://www.w3.org/2001/XMLSchema-instance" xsi:schemaLocation="http://www.topografix.com/GPX/1/1 http://www.topografix.com/GPX/1/1/gpx.xsd" version="1.1" creator="VisuGPX - https://www.visugpx.com">
  <metadata>
    <name>StLoupThouet_CebronEtThouet_19km</name>
    <desc><![CDATA[gnerando idor:8125504]]></desc>
  </metadata>
  <trk>
    <name><![CDATA[StLoup_CebronEtThouet_19.3km-8125504]]></name>
    <extensions>
      <line xmlns="http://www.topografix.com/GPX/gpx_style/0/2">
        <color>0000FF</color>
        <width>4</width>
      </line>
    </extensions>
    <trkseg>
      <trkpt lat="46.7874" lon="-0.16652">
        <ele>83</ele>
        <time>2023-11-13T07:50:33Z</time>
      </trkpt>
      <trkpt lat="46.78725" lon="-0.16669">
        <ele>82</ele>
        <time>2023-11-13T07:50:58Z</time>
      </trkpt>
      <trkpt lat="46.78707" lon="-0.16664">
        <ele>82</ele>
        <time>2023-11-13T07:51:23Z</time>
      </trkpt>
      <trkpt lat="46.78689" lon="-0.16667">
        <ele>82</ele>
        <time>2023-11-13T07:51:47Z</time>
      </trkpt>
      <trkpt lat="46.78673" lon="-0.16684">
        <ele>81</ele>
        <time>2023-11-13T07:52:13Z</time>
      </trkpt>
      <trkpt lat="46.78603" lon="-0.16713">
        <ele>83</ele>
        <time>2023-11-13T07:53:50Z</time>
      </trkpt>
      <trkpt lat="46.7859" lon="-0.16731">
        <ele>83</ele>
        <time>2023-11-13T07:54:14Z</time>
      </trkpt>
      <trkpt lat="46.7858" lon="-0.16754">
        <ele>84</ele>
        <time>2023-11-13T07:54:39Z</time>
      </trkpt>
      <trkpt lat="46.78575" lon="-0.1678">
        <ele>83</ele>
        <time>2023-11-13T07:55:04Z</time>
      </trkpt>
      <trkpt lat="46.78573" lon="-0.16916">
        <ele>84</ele>
        <time>2023-11-13T07:57:08Z</time>
      </trkpt>
      <trkpt lat="46.78583" lon="-0.16939">
        <ele>88</ele>
        <time>2023-11-13T07:57:33Z</time>
      </trkpt>
      <trkpt lat="46.78602" lon="-0.16937">
        <ele>89</ele>
        <time>2023-11-13T07:57:59Z</time>
      </trkpt>
      <trkpt lat="46.78619" lon="-0.16928">
        <ele>88</ele>
        <time>2023-11-13T07:58:23Z</time>
      </trkpt>
      <trkpt lat="46.78638" lon="-0.16926">
        <ele>89</ele>
        <time>2023-11-13T07:58:48Z</time>
      </trkpt>
      <trkpt lat="46.78732" lon="-0.1693">
        <ele>93</ele>
        <time>2023-11-13T08:00:54Z</time>
      </trkpt>
      <trkpt lat="46.78785" lon="-0.16956">
        <ele>96</ele>
        <time>2023-11-13T08:02:08Z</time>
      </trkpt>
      <trkpt lat="46.78817" lon="-0.16979">
        <ele>98</ele>
        <time>2023-11-13T08:02:56Z</time>
      </trkpt>
      <trkpt lat="46.78825" lon="-0.17003">
        <ele>101</ele>
        <time>2023-11-13T08:03:20Z</time>
      </trkpt>
      <trkpt lat="46.78831" lon="-0.17056">
        <ele>107</ele>
        <time>2023-11-13T08:04:09Z</time>
      </trkpt>
      <trkpt lat="46.78838" lon="-0.17081">
        <ele>109</ele>
        <time>2023-11-13T08:04:34Z</time>
      </trkpt>
      <trkpt lat="46.7885" lon="-0.171">
        <ele>111</ele>
        <time>2023-11-13T08:04:58Z</time>
      </trkpt>
      <trkpt lat="46.78857" lon="-0.17125">
        <ele>113</ele>
        <time>2023-11-13T08:05:22Z</time>
      </trkpt>
      <trkpt lat="46.78855" lon="-0.17152">
        <ele>116</ele>
        <time>2023-11-13T08:05:47Z</time>
      </trkpt>
      <trkpt lat="46.7885" lon="-0.17177">
        <ele>119</ele>
        <time>2023-11-13T08:06:11Z</time>
      </trkpt>
      <trkpt lat="46.78846" lon="-0.17232">
        <ele>122</ele>
        <time>2023-11-13T08:07:01Z</time>
      </trkpt>
      <trkpt lat="46.78821" lon="-0.17334">
        <ele>129</ele>
        <time>2023-11-13T08:08:40Z</time>
      </trkpt>
      <trkpt lat="46.78837" lon="-0.17346">
        <ele>129</ele>
        <time>2023-11-13T08:09:04Z</time>
      </trkpt>
      <trkpt lat="46.78856" lon="-0.17349">
        <ele>128</ele>
        <time>2023-11-13T08:09:30Z</time>
      </trkpt>
      <trkpt lat="46.78893" lon="-0.17347">
        <ele>127</ele>
        <time>2023-11-13T08:10:19Z</time>
      </trkpt>
      <trkpt lat="46.79021" lon="-0.17355">
        <ele>123</ele>
        <time>2023-11-13T08:13:10Z</time>
      </trkpt>
      <trkpt lat="46.79022" lon="-0.17382">
        <ele>124</ele>
        <time>2023-11-13T08:13:35Z</time>
      </trkpt>
      <trkpt lat="46.79014" lon="-0.17462">
        <ele>128</ele>
        <time>2023-11-13T08:14:49Z</time>
      </trkpt>
      <trkpt lat="46.78996" lon="-0.17566">
        <ele>130</ele>
        <time>2023-11-13T08:16:27Z</time>
      </trkpt>
      <trkpt lat="46.78962" lon="-0.17693">
        <ele>130</ele>
        <time>2023-11-13T08:18:31Z</time>
      </trkpt>
      <trkpt lat="46.78953" lon="-0.17718">
        <ele>129</ele>
        <time>2023-11-13T08:18:57Z</time>
      </trkpt>
      <trkpt lat="46.7893" lon="-0.1776">
        <ele>128</ele>
        <time>2023-11-13T08:19:46Z</time>
      </trkpt>
      <trkpt lat="46.78994" lon="-0.17816">
        <ele>125</ele>
        <time>2023-11-13T08:21:26Z</time>
      </trkpt>
      <trkpt lat="46.79009" lon="-0.17832">
        <ele>124</ele>
        <time>2023-11-13T08:21:51Z</time>
      </trkpt>
      <trkpt lat="46.79022" lon="-0.17851">
        <ele>122</ele>
        <time>2023-11-13T08:22:15Z</time>
      </trkpt>
      <trkpt lat="46.79032" lon="-0.17872">
        <ele>121</ele>
        <time>2023-11-13T08:22:39Z</time>
      </trkpt>
      <trkpt lat="46.7904" lon="-0.17897">
        <ele>120</ele>
        <time>2023-11-13T08:23:04Z</time>
      </trkpt>
      <trkpt lat="46.79045" lon="-0.17923">
        <ele>119</ele>
        <time>2023-11-13T08:23:29Z</time>
      </trkpt>
      <trkpt lat="46.79055" lon="-0.17945">
        <ele>119</ele>
        <time>2023-11-13T08:23:53Z</time>
      </trkpt>
      <trkpt lat="46.79081" lon="-0.17982">
        <ele>118</ele>
        <time>2023-11-13T08:24:41Z</time>
      </trkpt>
      <trkpt lat="46.79127" lon="-0.18025">
        <ele>119</ele>
        <time>2023-11-13T08:25:54Z</time>
      </trkpt>
      <trkpt lat="46.79163" lon="-0.18041">
        <ele>119</ele>
        <time>2023-11-13T08:26:44Z</time>
      </trkpt>
      <trkpt lat="46.79196" lon="-0.18067">
        <ele>122</ele>
        <time>2023-11-13T08:27:34Z</time>
      </trkpt>
      <trkpt lat="46.79305" lon="-0.18173">
        <ele>134</ele>
        <time>2023-11-13T08:30:29Z</time>
      </trkpt>
      <trkpt lat="46.79351" lon="-0.18216">
        <ele>137</ele>
        <time>2023-11-13T08:31:42Z</time>
      </trkpt>
      <trkpt lat="46.79368" lon="-0.18228">
        <ele>136</ele>
        <time>2023-11-13T08:32:07Z</time>
      </trkpt>
      <trkpt lat="46.79379" lon="-0.18248">
        <ele>136</ele>
        <time>2023-11-13T08:32:31Z</time>
      </trkpt>
      <trkpt lat="46.79368" lon="-0.1827">
        <ele>137</ele>
        <time>2023-11-13T08:32:55Z</time>
      </trkpt>
      <trkpt lat="46.7933" lon="-0.18329">
        <ele>137</ele>
        <time>2023-11-13T08:34:09Z</time>
      </trkpt>
      <trkpt lat="46.79297" lon="-0.18393">
        <ele>135</ele>
        <time>2023-11-13T08:35:23Z</time>
      </trkpt>
      <trkpt lat="46.79272" lon="-0.18433">
        <ele>134</ele>
        <time>2023-11-13T08:36:12Z</time>
      </trkpt>
      <trkpt lat="46.79258" lon="-0.18452">
        <ele>135</ele>
        <time>2023-11-13T08:36:38Z</time>
      </trkpt>
      <trkpt lat="46.79228" lon="-0.18484">
        <ele>136</ele>
        <time>2023-11-13T08:37:27Z</time>
      </trkpt>
      <trkpt lat="46.79184" lon="-0.18537">
        <ele>138</ele>
        <time>2023-11-13T08:38:43Z</time>
      </trkpt>
      <trkpt lat="46.79109" lon="-0.18654">
        <ele>140</ele>
        <time>2023-11-13T08:41:10Z</time>
      </trkpt>
      <trkpt lat="46.79094" lon="-0.1867">
        <ele>140</ele>
        <time>2023-11-13T08:41:34Z</time>
      </trkpt>
      <trkpt lat="46.79067" lon="-0.18706">
        <ele>140</ele>
        <time>2023-11-13T08:42:23Z</time>
      </trkpt>
      <trkpt lat="46.79051" lon="-0.1872">
        <ele>141</ele>
        <time>2023-11-13T08:42:48Z</time>
      </trkpt>
      <trkpt lat="46.79063" lon="-0.188">
        <ele>143</ele>
        <time>2023-11-13T08:44:03Z</time>
      </trkpt>
      <trkpt lat="46.79044" lon="-0.18905">
        <ele>143</ele>
        <time>2023-11-13T08:45:42Z</time>
      </trkpt>
      <trkpt lat="46.79021" lon="-0.19006">
        <ele>140</ele>
        <time>2023-11-13T08:47:19Z</time>
      </trkpt>
      <trkpt lat="46.79017" lon="-0.19061">
        <ele>139</ele>
        <time>2023-11-13T08:48:10Z</time>
      </trkpt>
      <trkpt lat="46.79022" lon="-0.19114">
        <ele>137</ele>
        <time>2023-11-13T08:48:59Z</time>
      </trkpt>
      <trkpt lat="46.79015" lon="-0.1914">
        <ele>137</ele>
        <time>2023-11-13T08:49:24Z</time>
      </trkpt>
      <trkpt lat="46.79003" lon="-0.19159">
        <ele>136</ele>
        <time>2023-11-13T08:49:48Z</time>
      </trkpt>
      <trkpt lat="46.78972" lon="-0.19189">
        <ele>137</ele>
        <time>2023-11-13T08:50:38Z</time>
      </trkpt>
      <trkpt lat="46.78958" lon="-0.19207">
        <ele>138</ele>
        <time>2023-11-13T08:51:03Z</time>
      </trkpt>
      <trkpt lat="46.78903" lon="-0.19213">
        <ele>139</ele>
        <time>2023-11-13T08:52:16Z</time>
      </trkpt>
      <trkpt lat="46.78829" lon="-0.19209">
        <ele>142</ele>
        <time>2023-11-13T08:53:55Z</time>
      </trkpt>
      <trkpt lat="46.7881" lon="-0.19206">
        <ele>143</ele>
        <time>2023-11-13T08:54:20Z</time>
      </trkpt>
      <trkpt lat="46.78792" lon="-0.19199">
        <ele>144</ele>
        <time>2023-11-13T08:54:45Z</time>
      </trkpt>
      <trkpt lat="46.78777" lon="-0.19182">
        <ele>144</ele>
        <time>2023-11-13T08:55:11Z</time>
      </trkpt>
      <trkpt lat="46.78724" lon="-0.19208">
        <ele>145</ele>
        <time>2023-11-13T08:56:25Z</time>
      </trkpt>
      <trkpt lat="46.78706" lon="-0.192">
        <ele>145</ele>
        <time>2023-11-13T08:56:50Z</time>
      </trkpt>
      <trkpt lat="46.78663" lon="-0.19112">
        <ele>144</ele>
        <time>2023-11-13T08:58:29Z</time>
      </trkpt>
      <trkpt lat="46.78638" lon="-0.19069">
        <ele>144</ele>
        <time>2023-11-13T08:59:21Z</time>
      </trkpt>
      <trkpt lat="46.78625" lon="-0.19051">
        <ele>143</ele>
        <time>2023-11-13T08:59:45Z</time>
      </trkpt>
      <trkpt lat="46.78548" lon="-0.19125">
        <ele>143</ele>
        <time>2023-11-13T09:01:48Z</time>
      </trkpt>
      <trkpt lat="46.78536" lon="-0.19144">
        <ele>143</ele>
        <time>2023-11-13T09:02:11Z</time>
      </trkpt>
      <trkpt lat="46.78531" lon="-0.19171">
        <ele>143</ele>
        <time>2023-11-13T09:02:37Z</time>
      </trkpt>
      <trkpt lat="46.78532" lon="-0.19198">
        <ele>144</ele>
        <time>2023-11-13T09:03:02Z</time>
      </trkpt>
      <trkpt lat="46.78517" lon="-0.19215">
        <ele>144</ele>
        <time>2023-11-13T09:03:27Z</time>
      </trkpt>
      <trkpt lat="46.78481" lon="-0.19231">
        <ele>143</ele>
        <time>2023-11-13T09:04:17Z</time>
      </trkpt>
      <trkpt lat="46.78463" lon="-0.19227">
        <ele>142</ele>
        <time>2023-11-13T09:04:41Z</time>
      </trkpt>
      <trkpt lat="46.78445" lon="-0.19216">
        <ele>141</ele>
        <time>2023-11-13T09:05:07Z</time>
      </trkpt>
      <trkpt lat="46.78354" lon="-0.1912">
        <ele>130</ele>
        <time>2023-11-13T09:07:37Z</time>
      </trkpt>
      <trkpt lat="46.78337" lon="-0.19111">
        <ele>128</ele>
        <time>2023-11-13T09:08:01Z</time>
      </trkpt>
      <trkpt lat="46.78322" lon="-0.19093">
        <ele>127</ele>
        <time>2023-11-13T09:08:27Z</time>
      </trkpt>
      <trkpt lat="46.78287" lon="-0.19079">
        <ele>124</ele>
        <time>2023-11-13T09:09:16Z</time>
      </trkpt>
      <trkpt lat="46.78272" lon="-0.19063">
        <ele>122</ele>
        <time>2023-11-13T09:09:40Z</time>
      </trkpt>
      <trkpt lat="46.78255" lon="-0.19051">
        <ele>121</ele>
        <time>2023-11-13T09:10:06Z</time>
      </trkpt>
      <trkpt lat="46.78236" lon="-0.19049">
        <ele>120</ele>
        <time>2023-11-13T09:10:31Z</time>
      </trkpt>
      <trkpt lat="46.78201" lon="-0.19063">
        <ele>119</ele>
        <time>2023-11-13T09:11:19Z</time>
      </trkpt>
      <trkpt lat="46.78164" lon="-0.1905">
        <ele>118</ele>
        <time>2023-11-13T09:12:10Z</time>
      </trkpt>
      <trkpt lat="46.78073" lon="-0.19027">
        <ele>115</ele>
        <time>2023-11-13T09:14:14Z</time>
      </trkpt>
      <trkpt lat="46.78036" lon="-0.19021">
        <ele>115</ele>
        <time>2023-11-13T09:15:03Z</time>
      </trkpt>
      <trkpt lat="46.77981" lon="-0.19018">
        <ele>115</ele>
        <time>2023-11-13T09:16:17Z</time>
      </trkpt>
      <trkpt lat="46.77945" lon="-0.19005">
        <ele>115</ele>
        <time>2023-11-13T09:17:06Z</time>
      </trkpt>
      <trkpt lat="46.77926" lon="-0.19002">
        <ele>115</ele>
        <time>2023-11-13T09:17:32Z</time>
      </trkpt>
      <trkpt lat="46.77872" lon="-0.1901">
        <ele>113</ele>
        <time>2023-11-13T09:18:44Z</time>
      </trkpt>
      <trkpt lat="46.77854" lon="-0.19015">
        <ele>112</ele>
        <time>2023-11-13T09:19:09Z</time>
      </trkpt>
      <trkpt lat="46.77837" lon="-0.19029">
        <ele>112</ele>
        <time>2023-11-13T09:19:35Z</time>
      </trkpt>
      <trkpt lat="46.77825" lon="-0.19048">
        <ele>111</ele>
        <time>2023-11-13T09:19:58Z</time>
      </trkpt>
      <trkpt lat="46.7781" lon="-0.19065">
        <ele>111</ele>
        <time>2023-11-13T09:20:24Z</time>
      </trkpt>
      <trkpt lat="46.77762" lon="-0.19108">
        <ele>110</ele>
        <time>2023-11-13T09:21:39Z</time>
      </trkpt>
      <trkpt lat="46.77729" lon="-0.19132">
        <ele>109</ele>
        <time>2023-11-13T09:22:28Z</time>
      </trkpt>
      <trkpt lat="46.77683" lon="-0.19174">
        <ele>111</ele>
        <time>2023-11-13T09:23:40Z</time>
      </trkpt>
      <trkpt lat="46.77648" lon="-0.19199">
        <ele>113</ele>
        <time>2023-11-13T09:24:32Z</time>
      </trkpt>
      <trkpt lat="46.77601" lon="-0.1924">
        <ele>115</ele>
        <time>2023-11-13T09:25:45Z</time>
      </trkpt>
      <trkpt lat="46.77593" lon="-0.19264">
        <ele>116</ele>
        <time>2023-11-13T09:26:10Z</time>
      </trkpt>
      <trkpt lat="46.77684" lon="-0.19355">
        <ele>122</ele>
        <time>2023-11-13T09:28:37Z</time>
      </trkpt>
      <trkpt lat="46.777" lon="-0.19368">
        <ele>122</ele>
        <time>2023-11-13T09:29:01Z</time>
      </trkpt>
      <trkpt lat="46.77715" lon="-0.19385">
        <ele>122</ele>
        <time>2023-11-13T09:29:27Z</time>
      </trkpt>
      <trkpt lat="46.77727" lon="-0.19405">
        <ele>122</ele>
        <time>2023-11-13T09:29:51Z</time>
      </trkpt>
      <trkpt lat="46.77727" lon="-0.19431">
        <ele>122</ele>
        <time>2023-11-13T09:30:15Z</time>
      </trkpt>
      <trkpt lat="46.77672" lon="-0.19444">
        <ele>122</ele>
        <time>2023-11-13T09:31:29Z</time>
      </trkpt>
      <trkpt lat="46.77653" lon="-0.19454">
        <ele>122</ele>
        <time>2023-11-13T09:31:56Z</time>
      </trkpt>
      <trkpt lat="46.77637" lon="-0.19466">
        <ele>121</ele>
        <time>2023-11-13T09:32:20Z</time>
      </trkpt>
      <trkpt lat="46.77618" lon="-0.19473">
        <ele>121</ele>
        <time>2023-11-13T09:32:46Z</time>
      </trkpt>
      <trkpt lat="46.77581" lon="-0.19482">
        <ele>120</ele>
        <time>2023-11-13T09:33:36Z</time>
      </trkpt>
      <trkpt lat="46.77562" lon="-0.19481">
        <ele>119</ele>
        <time>2023-11-13T09:34:02Z</time>
      </trkpt>
      <trkpt lat="46.77544" lon="-0.19483">
        <ele>119</ele>
        <time>2023-11-13T09:34:26Z</time>
      </trkpt>
      <trkpt lat="46.77507" lon="-0.19467">
        <ele>118</ele>
        <time>2023-11-13T09:35:17Z</time>
      </trkpt>
      <trkpt lat="46.77488" lon="-0.19464">
        <ele>117</ele>
        <time>2023-11-13T09:35:43Z</time>
      </trkpt>
      <trkpt lat="46.77471" lon="-0.19457">
        <ele>117</ele>
        <time>2023-11-13T09:36:06Z</time>
      </trkpt>
      <trkpt lat="46.77437" lon="-0.19436">
        <ele>117</ele>
        <time>2023-11-13T09:36:56Z</time>
      </trkpt>
      <trkpt lat="46.77402" lon="-0.19419">
        <ele>116</ele>
        <time>2023-11-13T09:37:45Z</time>
      </trkpt>
      <trkpt lat="46.77388" lon="-0.19402">
        <ele>114</ele>
        <time>2023-11-13T09:38:09Z</time>
      </trkpt>
      <trkpt lat="46.7737" lon="-0.19395">
        <ele>113</ele>
        <time>2023-11-13T09:38:34Z</time>
      </trkpt>
      <trkpt lat="46.77354" lon="-0.19383">
        <ele>112</ele>
        <time>2023-11-13T09:38:58Z</time>
      </trkpt>
      <trkpt lat="46.77336" lon="-0.19378">
        <ele>111</ele>
        <time>2023-11-13T09:39:22Z</time>
      </trkpt>
      <trkpt lat="46.7732" lon="-0.19365">
        <ele>111</ele>
        <time>2023-11-13T09:39:47Z</time>
      </trkpt>
      <trkpt lat="46.77302" lon="-0.1936">
        <ele>111</ele>
        <time>2023-11-13T09:40:11Z</time>
      </trkpt>
      <trkpt lat="46.77268" lon="-0.19342">
        <ele>113</ele>
        <time>2023-11-13T09:41:00Z</time>
      </trkpt>
      <trkpt lat="46.77253" lon="-0.19328">
        <ele>115</ele>
        <time>2023-11-13T09:41:23Z</time>
      </trkpt>
      <trkpt lat="46.77201" lon="-0.19251">
        <ele>119</ele>
        <time>2023-11-13T09:43:02Z</time>
      </trkpt>
      <trkpt lat="46.77166" lon="-0.19232">
        <ele>121</ele>
        <time>2023-11-13T09:43:52Z</time>
      </trkpt>
      <trkpt lat="46.7715" lon="-0.19216">
        <ele>121</ele>
        <time>2023-11-13T09:44:18Z</time>
      </trkpt>
      <trkpt lat="46.77155" lon="-0.19189">
        <ele>121</ele>
        <time>2023-11-13T09:44:43Z</time>
      </trkpt>
      <trkpt lat="46.77152" lon="-0.19163">
        <ele>121</ele>
        <time>2023-11-13T09:45:07Z</time>
      </trkpt>
      <trkpt lat="46.77142" lon="-0.1914">
        <ele>121</ele>
        <time>2023-11-13T09:45:32Z</time>
      </trkpt>
      <trkpt lat="46.77147" lon="-0.19114">
        <ele>122</ele>
        <time>2023-11-13T09:45:57Z</time>
      </trkpt>
      <trkpt lat="46.7712" lon="-0.19042">
        <ele>123</ele>
        <time>2023-11-13T09:47:12Z</time>
      </trkpt>
      <trkpt lat="46.77099" lon="-0.18998">
        <ele>124</ele>
        <time>2023-11-13T09:48:01Z</time>
      </trkpt>
      <trkpt lat="46.77084" lon="-0.18981">
        <ele>125</ele>
        <time>2023-11-13T09:48:26Z</time>
      </trkpt>
      <trkpt lat="46.77066" lon="-0.18979">
        <ele>124</ele>
        <time>2023-11-13T09:48:51Z</time>
      </trkpt>
      <trkpt lat="46.7703" lon="-0.18965">
        <ele>123</ele>
        <time>2023-11-13T09:49:40Z</time>
      </trkpt>
      <trkpt lat="46.77011" lon="-0.18966">
        <ele>123</ele>
        <time>2023-11-13T09:50:06Z</time>
      </trkpt>
      <trkpt lat="46.76994" lon="-0.18958">
        <ele>122</ele>
        <time>2023-11-13T09:50:29Z</time>
      </trkpt>
      <trkpt lat="46.7692" lon="-0.1896">
        <ele>122</ele>
        <time>2023-11-13T09:52:08Z</time>
      </trkpt>
      <trkpt lat="46.76901" lon="-0.18966">
        <ele>122</ele>
        <time>2023-11-13T09:52:34Z</time>
      </trkpt>
      <trkpt lat="46.76846" lon="-0.18969">
        <ele>123</ele>
        <time>2023-11-13T09:53:48Z</time>
      </trkpt>
      <trkpt lat="46.76854" lon="-0.18945">
        <ele>123</ele>
        <time>2023-11-13T09:54:12Z</time>
      </trkpt>
      <trkpt lat="46.76885" lon="-0.18913">
        <ele>124</ele>
        <time>2023-11-13T09:55:03Z</time>
      </trkpt>
      <trkpt lat="46.76913" lon="-0.18877">
        <ele>125</ele>
        <time>2023-11-13T09:55:52Z</time>
      </trkpt>
      <trkpt lat="46.76925" lon="-0.18856">
        <ele>126</ele>
        <time>2023-11-13T09:56:17Z</time>
      </trkpt>
      <trkpt lat="46.7696" lon="-0.1876">
        <ele>130</ele>
        <time>2023-11-13T09:57:57Z</time>
      </trkpt>
      <trkpt lat="46.76998" lon="-0.18668">
        <ele>132</ele>
        <time>2023-11-13T09:59:35Z</time>
      </trkpt>
      <trkpt lat="46.77033" lon="-0.18605">
        <ele>134</ele>
        <time>2023-11-13T10:00:49Z</time>
      </trkpt>
      <trkpt lat="46.77059" lon="-0.18565">
        <ele>135</ele>
        <time>2023-11-13T10:01:40Z</time>
      </trkpt>
      <trkpt lat="46.77086" lon="-0.18531">
        <ele>136</ele>
        <time>2023-11-13T10:02:27Z</time>
      </trkpt>
      <trkpt lat="46.77259" lon="-0.18332">
        <ele>139</ele>
        <time>2023-11-13T10:07:21Z</time>
      </trkpt>
      <trkpt lat="46.77312" lon="-0.18259">
        <ele>139</ele>
        <time>2023-11-13T10:08:58Z</time>
      </trkpt>
      <trkpt lat="46.77389" lon="-0.18142">
        <ele>138</ele>
        <time>2023-11-13T10:11:27Z</time>
      </trkpt>
      <trkpt lat="46.77445" lon="-0.1807">
        <ele>137</ele>
        <time>2023-11-13T10:13:06Z</time>
      </trkpt>
      <trkpt lat="46.77563" lon="-0.17935">
        <ele>134</ele>
        <time>2023-11-13T10:16:26Z</time>
      </trkpt>
      <trkpt lat="46.77618" lon="-0.1786">
        <ele>134</ele>
        <time>2023-11-13T10:18:07Z</time>
      </trkpt>
      <trkpt lat="46.77627" lon="-0.17837">
        <ele>134</ele>
        <time>2023-11-13T10:18:31Z</time>
      </trkpt>
      <trkpt lat="46.77627" lon="-0.17727">
        <ele>134</ele>
        <time>2023-11-13T10:20:11Z</time>
      </trkpt>
      <trkpt lat="46.77631" lon="-0.17647">
        <ele>133</ele>
        <time>2023-11-13T10:21:25Z</time>
      </trkpt>
      <trkpt lat="46.77623" lon="-0.17594">
        <ele>131</ele>
        <time>2023-11-13T10:22:14Z</time>
      </trkpt>
      <trkpt lat="46.77609" lon="-0.17577">
        <ele>130</ele>
        <time>2023-11-13T10:22:39Z</time>
      </trkpt>
      <trkpt lat="46.77576" lon="-0.17553">
        <ele>128</ele>
        <time>2023-11-13T10:23:28Z</time>
      </trkpt>
      <trkpt lat="46.77562" lon="-0.17533">
        <ele>126</ele>
        <time>2023-11-13T10:23:54Z</time>
      </trkpt>
      <trkpt lat="46.77547" lon="-0.17519">
        <ele>125</ele>
        <time>2023-11-13T10:24:18Z</time>
      </trkpt>
      <trkpt lat="46.77557" lon="-0.17496">
        <ele>124</ele>
        <time>2023-11-13T10:24:43Z</time>
      </trkpt>
      <trkpt lat="46.77557" lon="-0.1747">
        <ele>122</ele>
        <time>2023-11-13T10:25:06Z</time>
      </trkpt>
      <trkpt lat="46.77553" lon="-0.17415">
        <ele>119</ele>
        <time>2023-11-13T10:25:57Z</time>
      </trkpt>
      <trkpt lat="46.77535" lon="-0.17255">
        <ele>110</ele>
        <time>2023-11-13T10:28:25Z</time>
      </trkpt>
      <trkpt lat="46.77518" lon="-0.17248">
        <ele>110</ele>
        <time>2023-11-13T10:28:49Z</time>
      </trkpt>
      <trkpt lat="46.77432" lon="-0.17298">
        <ele>114</ele>
        <time>2023-11-13T10:30:52Z</time>
      </trkpt>
      <trkpt lat="46.77381" lon="-0.17332">
        <ele>115</ele>
        <time>2023-11-13T10:32:07Z</time>
      </trkpt>
      <trkpt lat="46.77317" lon="-0.17387">
        <ele>116</ele>
        <time>2023-11-13T10:33:46Z</time>
      </trkpt>
      <trkpt lat="46.77298" lon="-0.1739">
        <ele>117</ele>
        <time>2023-11-13T10:34:12Z</time>
      </trkpt>
      <trkpt lat="46.77225" lon="-0.17376">
        <ele>118</ele>
        <time>2023-11-13T10:35:50Z</time>
      </trkpt>
      <trkpt lat="46.77209" lon="-0.17366">
        <ele>118</ele>
        <time>2023-11-13T10:36:13Z</time>
      </trkpt>
      <trkpt lat="46.77135" lon="-0.17357">
        <ele>119</ele>
        <time>2023-11-13T10:37:52Z</time>
      </trkpt>
      <trkpt lat="46.77117" lon="-0.17357">
        <ele>119</ele>
        <time>2023-11-13T10:38:16Z</time>
      </trkpt>
      <trkpt lat="46.77081" lon="-0.17344">
        <ele>119</ele>
        <time>2023-11-13T10:39:06Z</time>
      </trkpt>
      <trkpt lat="46.77063" lon="-0.17335">
        <ele>119</ele>
        <time>2023-11-13T10:39:31Z</time>
      </trkpt>
      <trkpt lat="46.7703" lon="-0.17308">
        <ele>119</ele>
        <time>2023-11-13T10:40:22Z</time>
      </trkpt>
      <trkpt lat="46.76924" lon="-0.172">
        <ele>118</ele>
        <time>2023-11-13T10:43:14Z</time>
      </trkpt>
      <trkpt lat="46.76907" lon="-0.17189">
        <ele>117</ele>
        <time>2023-11-13T10:43:39Z</time>
      </trkpt>
      <trkpt lat="46.76889" lon="-0.17192">
        <ele>117</ele>
        <time>2023-11-13T10:44:03Z</time>
      </trkpt>
      <trkpt lat="46.76836" lon="-0.17214">
        <ele>117</ele>
        <time>2023-11-13T10:45:17Z</time>
      </trkpt>
      <trkpt lat="46.768" lon="-0.17224">
        <ele>117</ele>
        <time>2023-11-13T10:46:05Z</time>
      </trkpt>
      <trkpt lat="46.76745" lon="-0.17235">
        <ele>115</ele>
        <time>2023-11-13T10:47:20Z</time>
      </trkpt>
      <trkpt lat="46.76696" lon="-0.17273">
        <ele>113</ele>
        <time>2023-11-13T10:48:34Z</time>
      </trkpt>
      <trkpt lat="46.76681" lon="-0.17257">
        <ele>113</ele>
        <time>2023-11-13T10:48:58Z</time>
      </trkpt>
      <trkpt lat="46.76685" lon="-0.17231">
        <ele>113</ele>
        <time>2023-11-13T10:49:23Z</time>
      </trkpt>
      <trkpt lat="46.76713" lon="-0.17199">
        <ele>113</ele>
        <time>2023-11-13T10:50:10Z</time>
      </trkpt>
      <trkpt lat="46.76745" lon="-0.17171">
        <ele>113</ele>
        <time>2023-11-13T10:51:00Z</time>
      </trkpt>
      <trkpt lat="46.76754" lon="-0.17148">
        <ele>113</ele>
        <time>2023-11-13T10:51:24Z</time>
      </trkpt>
      <trkpt lat="46.76677" lon="-0.16996">
        <ele>106</ele>
        <time>2023-11-13T10:54:17Z</time>
      </trkpt>
      <trkpt lat="46.76636" lon="-0.16908">
        <ele>98</ele>
        <time>2023-11-13T10:55:54Z</time>
      </trkpt>
      <trkpt lat="46.76616" lon="-0.16907">
        <ele>96</ele>
        <time>2023-11-13T10:56:21Z</time>
      </trkpt>
      <trkpt lat="46.76598" lon="-0.16912">
        <ele>96</ele>
        <time>2023-11-13T10:56:45Z</time>
      </trkpt>
      <trkpt lat="46.76561" lon="-0.16912">
        <ele>93</ele>
        <time>2023-11-13T10:57:35Z</time>
      </trkpt>
      <trkpt lat="46.76575" lon="-0.16893">
        <ele>92</ele>
        <time>2023-11-13T10:58:00Z</time>
      </trkpt>
      <trkpt lat="46.7658" lon="-0.16867">
        <ele>90</ele>
        <time>2023-11-13T10:58:25Z</time>
      </trkpt>
      <trkpt lat="46.76591" lon="-0.16845">
        <ele>88</ele>
        <time>2023-11-13T10:58:50Z</time>
      </trkpt>
      <trkpt lat="46.76604" lon="-0.16826">
        <ele>88</ele>
        <time>2023-11-13T10:59:14Z</time>
      </trkpt>
      <trkpt lat="46.7661" lon="-0.16801">
        <ele>89</ele>
        <time>2023-11-13T10:59:39Z</time>
      </trkpt>
      <trkpt lat="46.76621" lon="-0.16691">
        <ele>94</ele>
        <time>2023-11-13T11:01:20Z</time>
      </trkpt>
      <trkpt lat="46.76633" lon="-0.16672">
        <ele>93</ele>
        <time>2023-11-13T11:01:44Z</time>
      </trkpt>
      <trkpt lat="46.76615" lon="-0.16677">
        <ele>95</ele>
        <time>2023-11-13T11:02:08Z</time>
      </trkpt>
      <trkpt lat="46.76596" lon="-0.16675">
        <ele>98</ele>
        <time>2023-11-13T11:02:34Z</time>
      </trkpt>
      <trkpt lat="46.7656" lon="-0.16692">
        <ele>101</ele>
        <time>2023-11-13T11:03:24Z</time>
      </trkpt>
      <trkpt lat="46.76544" lon="-0.16708">
        <ele>100</ele>
        <time>2023-11-13T11:03:50Z</time>
      </trkpt>
      <trkpt lat="46.76527" lon="-0.16719">
        <ele>100</ele>
        <time>2023-11-13T11:04:15Z</time>
      </trkpt>
      <trkpt lat="46.76508" lon="-0.16725">
        <ele>100</ele>
        <time>2023-11-13T11:04:41Z</time>
      </trkpt>
      <trkpt lat="46.76462" lon="-0.16767">
        <ele>98</ele>
        <time>2023-11-13T11:05:53Z</time>
      </trkpt>
      <trkpt lat="46.76433" lon="-0.16803">
        <ele>97</ele>
        <time>2023-11-13T11:06:44Z</time>
      </trkpt>
      <trkpt lat="46.76415" lon="-0.16801">
        <ele>99</ele>
        <time>2023-11-13T11:07:08Z</time>
      </trkpt>
      <trkpt lat="46.76399" lon="-0.16813">
        <ele>101</ele>
        <time>2023-11-13T11:07:32Z</time>
      </trkpt>
      <trkpt lat="46.76398" lon="-0.16839">
        <ele>99</ele>
        <time>2023-11-13T11:07:56Z</time>
      </trkpt>
      <trkpt lat="46.76404" lon="-0.16864">
        <ele>96</ele>
        <time>2023-11-13T11:08:20Z</time>
      </trkpt>
      <trkpt lat="46.76399" lon="-0.16891">
        <ele>95</ele>
        <time>2023-11-13T11:08:46Z</time>
      </trkpt>
      <trkpt lat="46.76384" lon="-0.16907">
        <ele>97</ele>
        <time>2023-11-13T11:09:11Z</time>
      </trkpt>
      <trkpt lat="46.76364" lon="-0.16953">
        <ele>98</ele>
        <time>2023-11-13T11:10:00Z</time>
      </trkpt>
      <trkpt lat="46.76355" lon="-0.17005">
        <ele>96</ele>
        <time>2023-11-13T11:10:49Z</time>
      </trkpt>
      <trkpt lat="46.76339" lon="-0.17018">
        <ele>97</ele>
        <time>2023-11-13T11:11:14Z</time>
      </trkpt>
      <trkpt lat="46.76325" lon="-0.17035">
        <ele>99</ele>
        <time>2023-11-13T11:11:38Z</time>
      </trkpt>
      <trkpt lat="46.76311" lon="-0.17053">
        <ele>101</ele>
        <time>2023-11-13T11:12:03Z</time>
      </trkpt>
      <trkpt lat="46.763" lon="-0.17074">
        <ele>102</ele>
        <time>2023-11-13T11:12:27Z</time>
      </trkpt>
      <trkpt lat="46.76286" lon="-0.17093">
        <ele>104</ele>
        <time>2023-11-13T11:12:53Z</time>
      </trkpt>
      <trkpt lat="46.76268" lon="-0.171">
        <ele>108</ele>
        <time>2023-11-13T11:13:18Z</time>
      </trkpt>
      <trkpt lat="46.7625" lon="-0.17102">
        <ele>111</ele>
        <time>2023-11-13T11:13:42Z</time>
      </trkpt>
      <trkpt lat="46.76232" lon="-0.17099">
        <ele>113</ele>
        <time>2023-11-13T11:14:06Z</time>
      </trkpt>
      <trkpt lat="46.76214" lon="-0.17106">
        <ele>114</ele>
        <time>2023-11-13T11:14:31Z</time>
      </trkpt>
      <trkpt lat="46.76143" lon="-0.16983">
        <ele>126</ele>
        <time>2023-11-13T11:16:58Z</time>
      </trkpt>
      <trkpt lat="46.76128" lon="-0.16966">
        <ele>127</ele>
        <time>2023-11-13T11:17:23Z</time>
      </trkpt>
      <trkpt lat="46.76069" lon="-0.16887">
        <ele>134</ele>
        <time>2023-11-13T11:19:10Z</time>
      </trkpt>
      <trkpt lat="46.76038" lon="-0.16822">
        <ele>139</ele>
        <time>2023-11-13T11:20:22Z</time>
      </trkpt>
      <trkpt lat="46.75988" lon="-0.16743">
        <ele>147</ele>
        <time>2023-11-13T11:22:01Z</time>
      </trkpt>
      <trkpt lat="46.75921" lon="-0.16646">
        <ele>150</ele>
        <time>2023-11-13T11:24:07Z</time>
      </trkpt>
      <trkpt lat="46.7594" lon="-0.16642">
        <ele>150</ele>
        <time>2023-11-13T11:24:32Z</time>
      </trkpt>
      <trkpt lat="46.75955" lon="-0.16627">
        <ele>151</ele>
        <time>2023-11-13T11:24:56Z</time>
      </trkpt>
      <trkpt lat="46.75995" lon="-0.16617">
        <ele>152</ele>
        <time>2023-11-13T11:25:51Z</time>
      </trkpt>
      <trkpt lat="46.76044" lon="-0.16581">
        <ele>152</ele>
        <time>2023-11-13T11:27:04Z</time>
      </trkpt>
      <trkpt lat="46.76074" lon="-0.16551">
        <ele>152</ele>
        <time>2023-11-13T11:27:52Z</time>
      </trkpt>
      <trkpt lat="46.76102" lon="-0.16515">
        <ele>152</ele>
        <time>2023-11-13T11:28:42Z</time>
      </trkpt>
      <trkpt lat="46.76112" lon="-0.1649">
        <ele>151</ele>
        <time>2023-11-13T11:29:09Z</time>
      </trkpt>
      <trkpt lat="46.76115" lon="-0.16464">
        <ele>151</ele>
        <time>2023-11-13T11:29:33Z</time>
      </trkpt>
      <trkpt lat="46.76127" lon="-0.16443">
        <ele>149</ele>
        <time>2023-11-13T11:29:58Z</time>
      </trkpt>
      <trkpt lat="46.76145" lon="-0.16435">
        <ele>148</ele>
        <time>2023-11-13T11:30:23Z</time>
      </trkpt>
      <trkpt lat="46.76158" lon="-0.16415">
        <ele>147</ele>
        <time>2023-11-13T11:30:48Z</time>
      </trkpt>
      <trkpt lat="46.76192" lon="-0.16386">
        <ele>143</ele>
        <time>2023-11-13T11:31:41Z</time>
      </trkpt>
      <trkpt lat="46.76202" lon="-0.16363">
        <ele>141</ele>
        <time>2023-11-13T11:32:05Z</time>
      </trkpt>
      <trkpt lat="46.76232" lon="-0.16329">
        <ele>138</ele>
        <time>2023-11-13T11:32:56Z</time>
      </trkpt>
      <trkpt lat="46.7624" lon="-0.16306">
        <ele>137</ele>
        <time>2023-11-13T11:33:20Z</time>
      </trkpt>
      <trkpt lat="46.76234" lon="-0.16281">
        <ele>138</ele>
        <time>2023-11-13T11:33:44Z</time>
      </trkpt>
      <trkpt lat="46.76218" lon="-0.16267">
        <ele>140</ele>
        <time>2023-11-13T11:34:09Z</time>
      </trkpt>
      <trkpt lat="46.76205" lon="-0.16248">
        <ele>141</ele>
        <time>2023-11-13T11:34:33Z</time>
      </trkpt>
      <trkpt lat="46.76196" lon="-0.16224">
        <ele>143</ele>
        <time>2023-11-13T11:34:58Z</time>
      </trkpt>
      <trkpt lat="46.76188" lon="-0.162">
        <ele>144</ele>
        <time>2023-11-13T11:35:23Z</time>
      </trkpt>
      <trkpt lat="46.76187" lon="-0.16173">
        <ele>145</ele>
        <time>2023-11-13T11:35:48Z</time>
      </trkpt>
      <trkpt lat="46.76179" lon="-0.16148">
        <ele>147</ele>
        <time>2023-11-13T11:36:13Z</time>
      </trkpt>
      <trkpt lat="46.76169" lon="-0.16097">
        <ele>150</ele>
        <time>2023-11-13T11:37:01Z</time>
      </trkpt>
      <trkpt lat="46.7615" lon="-0.16084">
        <ele>152</ele>
        <time>2023-11-13T11:37:29Z</time>
      </trkpt>
      <trkpt lat="46.76112" lon="-0.16078">
        <ele>153</ele>
        <time>2023-11-13T11:38:20Z</time>
      </trkpt>
      <trkpt lat="46.76076" lon="-0.16067">
        <ele>154</ele>
        <time>2023-11-13T11:39:09Z</time>
      </trkpt>
      <trkpt lat="46.76052" lon="-0.16027">
        <ele>154</ele>
        <time>2023-11-13T11:39:58Z</time>
      </trkpt>
      <trkpt lat="46.76021" lon="-0.16">
        <ele>154</ele>
        <time>2023-11-13T11:40:46Z</time>
      </trkpt>
      <trkpt lat="46.75934" lon="-0.1586">
        <ele>154</ele>
        <time>2023-11-13T11:43:39Z</time>
      </trkpt>
      <trkpt lat="46.758" lon="-0.15634">
        <ele>155</ele>
        <time>2023-11-13T11:48:12Z</time>
      </trkpt>
      <trkpt lat="46.75787" lon="-0.15616">
        <ele>155</ele>
        <time>2023-11-13T11:48:36Z</time>
      </trkpt>
      <trkpt lat="46.75738" lon="-0.15534">
        <ele>155</ele>
        <time>2023-11-13T11:50:16Z</time>
      </trkpt>
      <trkpt lat="46.75723" lon="-0.15518">
        <ele>155</ele>
        <time>2023-11-13T11:50:40Z</time>
      </trkpt>
      <trkpt lat="46.75704" lon="-0.15518">
        <ele>155</ele>
        <time>2023-11-13T11:51:06Z</time>
      </trkpt>
      <trkpt lat="46.75686" lon="-0.15522">
        <ele>156</ele>
        <time>2023-11-13T11:51:30Z</time>
      </trkpt>
      <trkpt lat="46.75615" lon="-0.15547">
        <ele>156</ele>
        <time>2023-11-13T11:53:07Z</time>
      </trkpt>
      <trkpt lat="46.75597" lon="-0.15556">
        <ele>156</ele>
        <time>2023-11-13T11:53:33Z</time>
      </trkpt>
      <trkpt lat="46.7558" lon="-0.15569">
        <ele>156</ele>
        <time>2023-11-13T11:53:58Z</time>
      </trkpt>
      <trkpt lat="46.75566" lon="-0.15585">
        <ele>156</ele>
        <time>2023-11-13T11:54:22Z</time>
      </trkpt>
      <trkpt lat="46.7551" lon="-0.15657">
        <ele>156</ele>
        <time>2023-11-13T11:56:02Z</time>
      </trkpt>
      <trkpt lat="46.7548" lon="-0.15691">
        <ele>157</ele>
        <time>2023-11-13T11:56:52Z</time>
      </trkpt>
      <trkpt lat="46.7543" lon="-0.15727">
        <ele>158</ele>
        <time>2023-11-13T11:58:07Z</time>
      </trkpt>
      <trkpt lat="46.75397" lon="-0.15754">
        <ele>158</ele>
        <time>2023-11-13T11:58:57Z</time>
      </trkpt>
      <trkpt lat="46.75378" lon="-0.15759">
        <ele>158</ele>
        <time>2023-11-13T11:59:23Z</time>
      </trkpt>
      <trkpt lat="46.75361" lon="-0.15749">
        <ele>158</ele>
        <time>2023-11-13T11:59:48Z</time>
      </trkpt>
      <trkpt lat="46.75327" lon="-0.15767">
        <ele>159</ele>
        <time>2023-11-13T12:00:36Z</time>
      </trkpt>
      <trkpt lat="46.7531" lon="-0.15781">
        <ele>159</ele>
        <time>2023-11-13T12:01:02Z</time>
      </trkpt>
      <trkpt lat="46.75297" lon="-0.15802">
        <ele>159</ele>
        <time>2023-11-13T12:01:28Z</time>
      </trkpt>
      <trkpt lat="46.75292" lon="-0.15827">
        <ele>160</ele>
        <time>2023-11-13T12:01:52Z</time>
      </trkpt>
      <trkpt lat="46.75275" lon="-0.15876">
        <ele>160</ele>
        <time>2023-11-13T12:02:42Z</time>
      </trkpt>
      <trkpt lat="46.75269" lon="-0.15902">
        <ele>160</ele>
        <time>2023-11-13T12:03:07Z</time>
      </trkpt>
      <trkpt lat="46.75253" lon="-0.15951">
        <ele>159</ele>
        <time>2023-11-13T12:03:56Z</time>
      </trkpt>
      <trkpt lat="46.75228" lon="-0.15992">
        <ele>158</ele>
        <time>2023-11-13T12:04:47Z</time>
      </trkpt>
      <trkpt lat="46.75225" lon="-0.16018">
        <ele>158</ele>
        <time>2023-11-13T12:05:11Z</time>
      </trkpt>
      <trkpt lat="46.75231" lon="-0.1607">
        <ele>159</ele>
        <time>2023-11-13T12:05:59Z</time>
      </trkpt>
      <trkpt lat="46.75243" lon="-0.16123">
        <ele>159</ele>
        <time>2023-11-13T12:06:50Z</time>
      </trkpt>
      <trkpt lat="46.75251" lon="-0.16177">
        <ele>159</ele>
        <time>2023-11-13T12:07:41Z</time>
      </trkpt>
      <trkpt lat="46.75249" lon="-0.16231">
        <ele>157</ele>
        <time>2023-11-13T12:08:30Z</time>
      </trkpt>
      <trkpt lat="46.75232" lon="-0.16242">
        <ele>157</ele>
        <time>2023-11-13T12:08:55Z</time>
      </trkpt>
      <trkpt lat="46.75231" lon="-0.16269">
        <ele>155</ele>
        <time>2023-11-13T12:09:20Z</time>
      </trkpt>
      <trkpt lat="46.75243" lon="-0.16321">
        <ele>153</ele>
        <time>2023-11-13T12:10:10Z</time>
      </trkpt>
      <trkpt lat="46.75274" lon="-0.16349">
        <ele>151</ele>
        <time>2023-11-13T12:10:58Z</time>
      </trkpt>
      <trkpt lat="46.75341" lon="-0.16396">
        <ele>148</ele>
        <time>2023-11-13T12:12:38Z</time>
      </trkpt>
      <trkpt lat="46.7537" lon="-0.16428">
        <ele>147</ele>
        <time>2023-11-13T12:13:26Z</time>
      </trkpt>
      <trkpt lat="46.75388" lon="-0.16438">
        <ele>147</ele>
        <time>2023-11-13T12:13:52Z</time>
      </trkpt>
      <trkpt lat="46.75406" lon="-0.16443">
        <ele>146</ele>
        <time>2023-11-13T12:14:16Z</time>
      </trkpt>
      <trkpt lat="46.7546" lon="-0.16469">
        <ele>144</ele>
        <time>2023-11-13T12:15:32Z</time>
      </trkpt>
      <trkpt lat="46.75478" lon="-0.16474">
        <ele>144</ele>
        <time>2023-11-13T12:15:57Z</time>
      </trkpt>
      <trkpt lat="46.75494" lon="-0.16487">
        <ele>143</ele>
        <time>2023-11-13T12:16:21Z</time>
      </trkpt>
      <trkpt lat="46.75483" lon="-0.16508">
        <ele>143</ele>
        <time>2023-11-13T12:16:45Z</time>
      </trkpt>
      <trkpt lat="46.75454" lon="-0.16577">
        <ele>139</ele>
        <time>2023-11-13T12:17:59Z</time>
      </trkpt>
      <trkpt lat="46.75451" lon="-0.16604">
        <ele>138</ele>
        <time>2023-11-13T12:18:24Z</time>
      </trkpt>
      <trkpt lat="46.75457" lon="-0.1663">
        <ele>137</ele>
        <time>2023-11-13T12:18:49Z</time>
      </trkpt>
      <trkpt lat="46.75459" lon="-0.16685">
        <ele>135</ele>
        <time>2023-11-13T12:19:40Z</time>
      </trkpt>
      <trkpt lat="46.75463" lon="-0.16712">
        <ele>134</ele>
        <time>2023-11-13T12:20:05Z</time>
      </trkpt>
      <trkpt lat="46.75461" lon="-0.16794">
        <ele>130</ele>
        <time>2023-11-13T12:21:20Z</time>
      </trkpt>
      <trkpt lat="46.7545" lon="-0.16873">
        <ele>127</ele>
        <time>2023-11-13T12:22:34Z</time>
      </trkpt>
      <trkpt lat="46.7545" lon="-0.169">
        <ele>127</ele>
        <time>2023-11-13T12:22:58Z</time>
      </trkpt>
      <trkpt lat="46.75434" lon="-0.17033">
        <ele>124</ele>
        <time>2023-11-13T12:25:02Z</time>
      </trkpt>
      <trkpt lat="46.75436" lon="-0.1706">
        <ele>122</ele>
        <time>2023-11-13T12:25:27Z</time>
      </trkpt>
      <trkpt lat="46.75434" lon="-0.17114">
        <ele>119</ele>
        <time>2023-11-13T12:26:16Z</time>
      </trkpt>
      <trkpt lat="46.7545" lon="-0.17162">
        <ele>115</ele>
        <time>2023-11-13T12:27:05Z</time>
      </trkpt>
      <trkpt lat="46.75466" lon="-0.17177">
        <ele>113</ele>
        <time>2023-11-13T12:27:30Z</time>
      </trkpt>
      <trkpt lat="46.75491" lon="-0.17219">
        <ele>110</ele>
        <time>2023-11-13T12:28:21Z</time>
      </trkpt>
      <trkpt lat="46.75507" lon="-0.17269">
        <ele>108</ele>
        <time>2023-11-13T12:29:11Z</time>
      </trkpt>
      <trkpt lat="46.75518" lon="-0.1732">
        <ele>106</ele>
        <time>2023-11-13T12:30:00Z</time>
      </trkpt>
      <trkpt lat="46.75509" lon="-0.17398">
        <ele>103</ele>
        <time>2023-11-13T12:31:13Z</time>
      </trkpt>
      <trkpt lat="46.7551" lon="-0.17424">
        <ele>102</ele>
        <time>2023-11-13T12:31:37Z</time>
      </trkpt>
      <trkpt lat="46.75521" lon="-0.17445">
        <ele>101</ele>
        <time>2023-11-13T12:32:01Z</time>
      </trkpt>
      <trkpt lat="46.75549" lon="-0.17482">
        <ele>98</ele>
        <time>2023-11-13T12:32:51Z</time>
      </trkpt>
      <trkpt lat="46.75561" lon="-0.17502">
        <ele>97</ele>
        <time>2023-11-13T12:33:15Z</time>
      </trkpt>
      <trkpt lat="46.75564" lon="-0.17556">
        <ele>95</ele>
        <time>2023-11-13T12:34:05Z</time>
      </trkpt>
      <trkpt lat="46.75559" lon="-0.17636">
        <ele>93</ele>
        <time>2023-11-13T12:35:18Z</time>
      </trkpt>
      <trkpt lat="46.75562" lon="-0.17663">
        <ele>93</ele>
        <time>2023-11-13T12:35:43Z</time>
      </trkpt>
      <trkpt lat="46.75557" lon="-0.17689">
        <ele>93</ele>
        <time>2023-11-13T12:36:08Z</time>
      </trkpt>
      <trkpt lat="46.75549" lon="-0.17713">
        <ele>93</ele>
        <time>2023-11-13T12:36:32Z</time>
      </trkpt>
      <trkpt lat="46.75557" lon="-0.17737">
        <ele>93</ele>
        <time>2023-11-13T12:36:57Z</time>
      </trkpt>
      <trkpt lat="46.75542" lon="-0.17751">
        <ele>93</ele>
        <time>2023-11-13T12:37:21Z</time>
      </trkpt>
      <trkpt lat="46.7556" lon="-0.17749">
        <ele>94</ele>
        <time>2023-11-13T12:37:45Z</time>
      </trkpt>
      <trkpt lat="46.75567" lon="-0.17828">
        <ele>98</ele>
        <time>2023-11-13T12:38:58Z</time>
      </trkpt>
      <trkpt lat="46.75586" lon="-0.17833">
        <ele>99</ele>
        <time>2023-11-13T12:39:23Z</time>
      </trkpt>
      <trkpt lat="46.75604" lon="-0.17833">
        <ele>100</ele>
        <time>2023-11-13T12:39:47Z</time>
      </trkpt>
      <trkpt lat="46.75621" lon="-0.17841">
        <ele>102</ele>
        <time>2023-11-13T12:40:11Z</time>
      </trkpt>
      <trkpt lat="46.75639" lon="-0.1784">
        <ele>103</ele>
        <time>2023-11-13T12:40:35Z</time>
      </trkpt>
      <trkpt lat="46.75656" lon="-0.17829">
        <ele>104</ele>
        <time>2023-11-13T12:41:00Z</time>
      </trkpt>
      <trkpt lat="46.75672" lon="-0.17842">
        <ele>106</ele>
        <time>2023-11-13T12:41:24Z</time>
      </trkpt>
      <trkpt lat="46.75686" lon="-0.1786">
        <ele>107</ele>
        <time>2023-11-13T12:41:49Z</time>
      </trkpt>
      <trkpt lat="46.75704" lon="-0.1786">
        <ele>108</ele>
        <time>2023-11-13T12:42:13Z</time>
      </trkpt>
      <trkpt lat="46.75719" lon="-0.17845">
        <ele>108</ele>
        <time>2023-11-13T12:42:38Z</time>
      </trkpt>
      <trkpt lat="46.75731" lon="-0.17825">
        <ele>109</ele>
        <time>2023-11-13T12:43:02Z</time>
      </trkpt>
      <trkpt lat="46.75749" lon="-0.17778">
        <ele>109</ele>
        <time>2023-11-13T12:43:51Z</time>
      </trkpt>
      <trkpt lat="46.75764" lon="-0.17762">
        <ele>110</ele>
        <time>2023-11-13T12:44:16Z</time>
      </trkpt>
      <trkpt lat="46.75801" lon="-0.1775">
        <ele>113</ele>
        <time>2023-11-13T12:45:07Z</time>
      </trkpt>
      <trkpt lat="46.75857" lon="-0.17741">
        <ele>116</ele>
        <time>2023-11-13T12:46:22Z</time>
      </trkpt>
      <trkpt lat="46.75894" lon="-0.17739">
        <ele>117</ele>
        <time>2023-11-13T12:47:11Z</time>
      </trkpt>
      <trkpt lat="46.76004" lon="-0.17746">
        <ele>118</ele>
        <time>2023-11-13T12:49:38Z</time>
      </trkpt>
      <trkpt lat="46.76079" lon="-0.17748">
        <ele>116</ele>
        <time>2023-11-13T12:51:18Z</time>
      </trkpt>
      <trkpt lat="46.76133" lon="-0.17761">
        <ele>116</ele>
        <time>2023-11-13T12:52:31Z</time>
      </trkpt>
      <trkpt lat="46.76207" lon="-0.17763">
        <ele>118</ele>
        <time>2023-11-13T12:54:10Z</time>
      </trkpt>
      <trkpt lat="46.76225" lon="-0.17761">
        <ele>119</ele>
        <time>2023-11-13T12:54:34Z</time>
      </trkpt>
      <trkpt lat="46.76244" lon="-0.17754">
        <ele>119</ele>
        <time>2023-11-13T12:55:00Z</time>
      </trkpt>
      <trkpt lat="46.76293" lon="-0.17716">
        <ele>118</ele>
        <time>2023-11-13T12:56:14Z</time>
      </trkpt>
      <trkpt lat="46.76308" lon="-0.17699">
        <ele>117</ele>
        <time>2023-11-13T12:56:40Z</time>
      </trkpt>
      <trkpt lat="46.76325" lon="-0.17687">
        <ele>117</ele>
        <time>2023-11-13T12:57:05Z</time>
      </trkpt>
      <trkpt lat="46.76343" lon="-0.17692">
        <ele>117</ele>
        <time>2023-11-13T12:57:29Z</time>
      </trkpt>
      <trkpt lat="46.76353" lon="-0.17715">
        <ele>119</ele>
        <time>2023-11-13T12:57:54Z</time>
      </trkpt>
      <trkpt lat="46.76371" lon="-0.17718">
        <ele>119</ele>
        <time>2023-11-13T12:58:18Z</time>
      </trkpt>
      <trkpt lat="46.76389" lon="-0.17708">
        <ele>119</ele>
        <time>2023-11-13T12:58:44Z</time>
      </trkpt>
      <trkpt lat="46.76404" lon="-0.17692">
        <ele>118</ele>
        <time>2023-11-13T12:59:09Z</time>
      </trkpt>
      <trkpt lat="46.76417" lon="-0.17673">
        <ele>117</ele>
        <time>2023-11-13T12:59:33Z</time>
      </trkpt>
      <trkpt lat="46.76448" lon="-0.17642">
        <ele>116</ele>
        <time>2023-11-13T13:00:23Z</time>
      </trkpt>
      <trkpt lat="46.7649" lon="-0.17591">
        <ele>113</ele>
        <time>2023-11-13T13:01:36Z</time>
      </trkpt>
      <trkpt lat="46.76557" lon="-0.17496">
        <ele>108</ele>
        <time>2023-11-13T13:03:41Z</time>
      </trkpt>
      <trkpt lat="46.7657" lon="-0.17476">
        <ele>108</ele>
        <time>2023-11-13T13:04:06Z</time>
      </trkpt>
      <trkpt lat="46.7658" lon="-0.17454">
        <ele>108</ele>
        <time>2023-11-13T13:04:30Z</time>
      </trkpt>
      <trkpt lat="46.76596" lon="-0.17439">
        <ele>108</ele>
        <time>2023-11-13T13:04:56Z</time>
      </trkpt>
      <trkpt lat="46.76609" lon="-0.1742">
        <ele>108</ele>
        <time>2023-11-13T13:05:20Z</time>
      </trkpt>
      <trkpt lat="46.76619" lon="-0.17398">
        <ele>108</ele>
        <time>2023-11-13T13:05:44Z</time>
      </trkpt>
      <trkpt lat="46.76611" lon="-0.17375">
        <ele>107</ele>
        <time>2023-11-13T13:06:08Z</time>
      </trkpt>
      <trkpt lat="46.76596" lon="-0.17358">
        <ele>106</ele>
        <time>2023-11-13T13:06:33Z</time>
      </trkpt>
      <trkpt lat="46.76562" lon="-0.17341">
        <ele>102</ele>
        <time>2023-11-13T13:07:21Z</time>
      </trkpt>
      <trkpt lat="46.76546" lon="-0.17327">
        <ele>100</ele>
        <time>2023-11-13T13:07:46Z</time>
      </trkpt>
      <trkpt lat="46.76496" lon="-0.17295">
        <ele>96</ele>
        <time>2023-11-13T13:08:59Z</time>
      </trkpt>
      <trkpt lat="46.7648" lon="-0.17281">
        <ele>95</ele>
        <time>2023-11-13T13:09:24Z</time>
      </trkpt>
      <trkpt lat="46.76471" lon="-0.17258">
        <ele>95</ele>
        <time>2023-11-13T13:09:48Z</time>
      </trkpt>
      <trkpt lat="46.76463" lon="-0.17204">
        <ele>94</ele>
        <time>2023-11-13T13:10:39Z</time>
      </trkpt>
      <trkpt lat="46.76456" lon="-0.1718">
        <ele>93</ele>
        <time>2023-11-13T13:11:03Z</time>
      </trkpt>
      <trkpt lat="46.76459" lon="-0.17154">
        <ele>93</ele>
        <time>2023-11-13T13:11:27Z</time>
      </trkpt>
      <trkpt lat="46.76467" lon="-0.1713">
        <ele>94</ele>
        <time>2023-11-13T13:11:51Z</time>
      </trkpt>
      <trkpt lat="46.7647" lon="-0.17103">
        <ele>94</ele>
        <time>2023-11-13T13:12:16Z</time>
      </trkpt>
      <trkpt lat="46.76477" lon="-0.17078">
        <ele>94</ele>
        <time>2023-11-13T13:12:41Z</time>
      </trkpt>
      <trkpt lat="46.765" lon="-0.17005">
        <ele>95</ele>
        <time>2023-11-13T13:13:54Z</time>
      </trkpt>
      <trkpt lat="46.7652" lon="-0.16959">
        <ele>93</ele>
        <time>2023-11-13T13:14:44Z</time>
      </trkpt>
      <trkpt lat="46.76533" lon="-0.1694">
        <ele>93</ele>
        <time>2023-11-13T13:15:08Z</time>
      </trkpt>
      <trkpt lat="46.76576" lon="-0.16889">
        <ele>92</ele>
        <time>2023-11-13T13:16:22Z</time>
      </trkpt>
      <trkpt lat="46.76584" lon="-0.16865">
        <ele>89</ele>
        <time>2023-11-13T13:16:47Z</time>
      </trkpt>
      <trkpt lat="46.76606" lon="-0.16822">
        <ele>89</ele>
        <time>2023-11-13T13:17:36Z</time>
      </trkpt>
      <trkpt lat="46.76609" lon="-0.16796">
        <ele>89</ele>
        <time>2023-11-13T13:18:00Z</time>
      </trkpt>
      <trkpt lat="46.76609" lon="-0.16769">
        <ele>90</ele>
        <time>2023-11-13T13:18:25Z</time>
      </trkpt>
      <trkpt lat="46.76609" lon="-0.16796">
        <ele>89</ele>
        <time>2023-11-13T13:18:49Z</time>
      </trkpt>
      <trkpt lat="46.76615" lon="-0.16771">
        <ele>90</ele>
        <time>2023-11-13T13:19:14Z</time>
      </trkpt>
      <trkpt lat="46.76618" lon="-0.16717">
        <ele>92</ele>
        <time>2023-11-13T13:20:03Z</time>
      </trkpt>
      <trkpt lat="46.76646" lon="-0.16646">
        <ele>93</ele>
        <time>2023-11-13T13:21:18Z</time>
      </trkpt>
      <trkpt lat="46.7666" lon="-0.16626">
        <ele>92</ele>
        <time>2023-11-13T13:21:44Z</time>
      </trkpt>
      <trkpt lat="46.76683" lon="-0.16552">
        <ele>98</ele>
        <time>2023-11-13T13:22:58Z</time>
      </trkpt>
      <trkpt lat="46.76687" lon="-0.16525">
        <ele>101</ele>
        <time>2023-11-13T13:23:24Z</time>
      </trkpt>
      <trkpt lat="46.76701" lon="-0.16507">
        <ele>102</ele>
        <time>2023-11-13T13:23:49Z</time>
      </trkpt>
      <trkpt lat="46.76717" lon="-0.16492">
        <ele>102</ele>
        <time>2023-11-13T13:24:14Z</time>
      </trkpt>
      <trkpt lat="46.76734" lon="-0.16484">
        <ele>101</ele>
        <time>2023-11-13T13:24:38Z</time>
      </trkpt>
      <trkpt lat="46.76751" lon="-0.16472">
        <ele>101</ele>
        <time>2023-11-13T13:25:03Z</time>
      </trkpt>
      <trkpt lat="46.7675" lon="-0.16446">
        <ele>104</ele>
        <time>2023-11-13T13:25:27Z</time>
      </trkpt>
      <trkpt lat="46.76742" lon="-0.16422">
        <ele>108</ele>
        <time>2023-11-13T13:25:51Z</time>
      </trkpt>
      <trkpt lat="46.76758" lon="-0.16411">
        <ele>109</ele>
        <time>2023-11-13T13:26:15Z</time>
      </trkpt>
      <trkpt lat="46.76789" lon="-0.16381">
        <ele>114</ele>
        <time>2023-11-13T13:27:04Z</time>
      </trkpt>
      <trkpt lat="46.76827" lon="-0.1638">
        <ele>114</ele>
        <time>2023-11-13T13:27:55Z</time>
      </trkpt>
      <trkpt lat="46.76845" lon="-0.16333">
        <ele>119</ele>
        <time>2023-11-13T13:28:44Z</time>
      </trkpt>
      <trkpt lat="46.76857" lon="-0.16311">
        <ele>121</ele>
        <time>2023-11-13T13:29:10Z</time>
      </trkpt>
      <trkpt lat="46.76875" lon="-0.16263">
        <ele>125</ele>
        <time>2023-11-13T13:30:00Z</time>
      </trkpt>
      <trkpt lat="46.7691" lon="-0.16276">
        <ele>124</ele>
        <time>2023-11-13T13:30:48Z</time>
      </trkpt>
      <trkpt lat="46.76965" lon="-0.16288">
        <ele>124</ele>
        <time>2023-11-13T13:32:02Z</time>
      </trkpt>
      <trkpt lat="46.77036" lon="-0.16326">
        <ele>121</ele>
        <time>2023-11-13T13:33:43Z</time>
      </trkpt>
      <trkpt lat="46.77055" lon="-0.1633">
        <ele>120</ele>
        <time>2023-11-13T13:34:09Z</time>
      </trkpt>
      <trkpt lat="46.77091" lon="-0.16328">
        <ele>119</ele>
        <time>2023-11-13T13:34:57Z</time>
      </trkpt>
      <trkpt lat="46.77109" lon="-0.1633">
        <ele>118</ele>
        <time>2023-11-13T13:35:21Z</time>
      </trkpt>
      <trkpt lat="46.7718" lon="-0.16351">
        <ele>115</ele>
        <time>2023-11-13T13:36:58Z</time>
      </trkpt>
      <trkpt lat="46.77216" lon="-0.16358">
        <ele>114</ele>
        <time>2023-11-13T13:37:46Z</time>
      </trkpt>
      <trkpt lat="46.77272" lon="-0.16373">
        <ele>112</ele>
        <time>2023-11-13T13:39:02Z</time>
      </trkpt>
      <trkpt lat="46.77344" lon="-0.16401">
        <ele>110</ele>
        <time>2023-11-13T13:40:42Z</time>
      </trkpt>
      <trkpt lat="46.77374" lon="-0.16431">
        <ele>108</ele>
        <time>2023-11-13T13:41:30Z</time>
      </trkpt>
      <trkpt lat="46.77407" lon="-0.16495">
        <ele>106</ele>
        <time>2023-11-13T13:42:43Z</time>
      </trkpt>
      <trkpt lat="46.77443" lon="-0.16506">
        <ele>105</ele>
        <time>2023-11-13T13:43:32Z</time>
      </trkpt>
      <trkpt lat="46.77516" lon="-0.16523">
        <ele>103</ele>
        <time>2023-11-13T13:45:11Z</time>
      </trkpt>
      <trkpt lat="46.77533" lon="-0.16532">
        <ele>102</ele>
        <time>2023-11-13T13:45:35Z</time>
      </trkpt>
      <trkpt lat="46.7758" lon="-0.16572">
        <ele>100</ele>
        <time>2023-11-13T13:46:48Z</time>
      </trkpt>
      <trkpt lat="46.77597" lon="-0.16583">
        <ele>100</ele>
        <time>2023-11-13T13:47:13Z</time>
      </trkpt>
      <trkpt lat="46.77615" lon="-0.16587">
        <ele>99</ele>
        <time>2023-11-13T13:47:37Z</time>
      </trkpt>
      <trkpt lat="46.77651" lon="-0.16605">
        <ele>98</ele>
        <time>2023-11-13T13:48:28Z</time>
      </trkpt>
      <trkpt lat="46.77666" lon="-0.1662">
        <ele>97</ele>
        <time>2023-11-13T13:48:52Z</time>
      </trkpt>
      <trkpt lat="46.77688" lon="-0.16665">
        <ele>95</ele>
        <time>2023-11-13T13:49:43Z</time>
      </trkpt>
      <trkpt lat="46.77715" lon="-0.16702">
        <ele>92</ele>
        <time>2023-11-13T13:50:32Z</time>
      </trkpt>
      <trkpt lat="46.7775" lon="-0.16765">
        <ele>86</ele>
        <time>2023-11-13T13:51:46Z</time>
      </trkpt>
      <trkpt lat="46.77766" lon="-0.1678">
        <ele>85</ele>
        <time>2023-11-13T13:52:11Z</time>
      </trkpt>
      <trkpt lat="46.77803" lon="-0.16779">
        <ele>85</ele>
        <time>2023-11-13T13:53:01Z</time>
      </trkpt>
      <trkpt lat="46.77821" lon="-0.16774">
        <ele>85</ele>
        <time>2023-11-13T13:53:25Z</time>
      </trkpt>
      <trkpt lat="46.77841" lon="-0.16772">
        <ele>85</ele>
        <time>2023-11-13T13:53:52Z</time>
      </trkpt>
      <trkpt lat="46.77859" lon="-0.16778">
        <ele>85</ele>
        <time>2023-11-13T13:54:17Z</time>
      </trkpt>
      <trkpt lat="46.77875" lon="-0.16791">
        <ele>85</ele>
        <time>2023-11-13T13:54:41Z</time>
      </trkpt>
      <trkpt lat="46.77932" lon="-0.16794">
        <ele>85</ele>
        <time>2023-11-13T13:55:57Z</time>
      </trkpt>
      <trkpt lat="46.77948" lon="-0.16784">
        <ele>84</ele>
        <time>2023-11-13T13:56:20Z</time>
      </trkpt>
      <trkpt lat="46.78003" lon="-0.16772">
        <ele>83</ele>
        <time>2023-11-13T13:57:35Z</time>
      </trkpt>
      <trkpt lat="46.78019" lon="-0.16759">
        <ele>82</ele>
        <time>2023-11-13T13:57:59Z</time>
      </trkpt>
      <trkpt lat="46.78071" lon="-0.16729">
        <ele>82</ele>
        <time>2023-11-13T13:59:14Z</time>
      </trkpt>
      <trkpt lat="46.78089" lon="-0.16724">
        <ele>82</ele>
        <time>2023-11-13T13:59:38Z</time>
      </trkpt>
      <trkpt lat="46.78106" lon="-0.16711">
        <ele>83</ele>
        <time>2023-11-13T14:00:04Z</time>
      </trkpt>
      <trkpt lat="46.78136" lon="-0.1668">
        <ele>83</ele>
        <time>2023-11-13T14:00:53Z</time>
      </trkpt>
      <trkpt lat="46.78152" lon="-0.16667">
        <ele>82</ele>
        <time>2023-11-13T14:01:17Z</time>
      </trkpt>
      <trkpt lat="46.78223" lon="-0.1663">
        <ele>82</ele>
        <time>2023-11-13T14:02:58Z</time>
      </trkpt>
      <trkpt lat="46.78239" lon="-0.16616">
        <ele>82</ele>
        <time>2023-11-13T14:03:23Z</time>
      </trkpt>
      <trkpt lat="46.78256" lon="-0.16606">
        <ele>81</ele>
        <time>2023-11-13T14:03:47Z</time>
      </trkpt>
      <trkpt lat="46.78273" lon="-0.16593">
        <ele>81</ele>
        <time>2023-11-13T14:04:13Z</time>
      </trkpt>
      <trkpt lat="46.78303" lon="-0.16563">
        <ele>81</ele>
        <time>2023-11-13T14:05:01Z</time>
      </trkpt>
      <trkpt lat="46.78317" lon="-0.16545">
        <ele>82</ele>
        <time>2023-11-13T14:05:26Z</time>
      </trkpt>
      <trkpt lat="46.7835" lon="-0.16519">
        <ele>82</ele>
        <time>2023-11-13T14:06:16Z</time>
      </trkpt>
      <trkpt lat="46.78369" lon="-0.1652">
        <ele>82</ele>
        <time>2023-11-13T14:06:42Z</time>
      </trkpt>
      <trkpt lat="46.78386" lon="-0.16506">
        <ele>81</ele>
        <time>2023-11-13T14:07:08Z</time>
      </trkpt>
      <trkpt lat="46.78404" lon="-0.16496">
        <ele>80</ele>
        <time>2023-11-13T14:07:33Z</time>
      </trkpt>
      <trkpt lat="46.78422" lon="-0.16493">
        <ele>80</ele>
        <time>2023-11-13T14:07:58Z</time>
      </trkpt>
      <trkpt lat="46.78441" lon="-0.16491">
        <ele>80</ele>
        <time>2023-11-13T14:08:23Z</time>
      </trkpt>
      <trkpt lat="46.78479" lon="-0.16496">
        <ele>79</ele>
        <time>2023-11-13T14:09:14Z</time>
      </trkpt>
      <trkpt lat="46.78497" lon="-0.16506">
        <ele>79</ele>
        <time>2023-11-13T14:09:40Z</time>
      </trkpt>
      <trkpt lat="46.78515" lon="-0.16497">
        <ele>79</ele>
        <time>2023-11-13T14:10:05Z</time>
      </trkpt>
      <trkpt lat="46.78534" lon="-0.16495">
        <ele>79</ele>
        <time>2023-11-13T14:10:30Z</time>
      </trkpt>
      <trkpt lat="46.78552" lon="-0.16489">
        <ele>80</ele>
        <time>2023-11-13T14:10:55Z</time>
      </trkpt>
      <trkpt lat="46.78571" lon="-0.16488">
        <ele>80</ele>
        <time>2023-11-13T14:11:20Z</time>
      </trkpt>
      <trkpt lat="46.78588" lon="-0.16501">
        <ele>80</ele>
        <time>2023-11-13T14:11:46Z</time>
      </trkpt>
      <trkpt lat="46.78616" lon="-0.16536">
        <ele>81</ele>
        <time>2023-11-13T14:12:35Z</time>
      </trkpt>
      <trkpt lat="46.78644" lon="-0.16574">
        <ele>81</ele>
        <time>2023-11-13T14:13:26Z</time>
      </trkpt>
      <trkpt lat="46.78653" lon="-0.16598">
        <ele>81</ele>
        <time>2023-11-13T14:13:51Z</time>
      </trkpt>
      <trkpt lat="46.7867" lon="-0.1661">
        <ele>81</ele>
        <time>2023-11-13T14:14:16Z</time>
      </trkpt>
      <trkpt lat="46.78688" lon="-0.16613">
        <ele>81</ele>
        <time>2023-11-13T14:14:41Z</time>
      </trkpt>
      <trkpt lat="46.78706" lon="-0.16624">
        <ele>82</ele>
        <time>2023-11-13T14:15:07Z</time>
      </trkpt>
      <trkpt lat="46.78724" lon="-0.16629">
        <ele>82</ele>
        <time>2023-11-13T14:15:31Z</time>
      </trkpt>
    </trkseg>
  </trk>
</gpx>